Česky Dansk Deutsch English Español Suomi Français Magyar Italiano Nederlands norsk Polski Português svenska Türkçe

 

Het Weer

Zahedan (Iran)

16:00, 17 augustus 2016 (GMT)

 
WE
 
Home            
Zahedan Zaranj Zabol Bam Iranshahr Farah Kerman Birjand Panjgur Jask Chahbahar Shindand Jiwani Bandarabbass Herat Gheshm Island / Dayrestan Khassab Quetta Airport Tabas Ras Al Khaimah International Airport Fujairah Torbat-Heydarieh Lar

Om een weerknop op uw website of weblog te plaatsen, copieer onderstaande code en plak die in uw pagina. In het eerste vakje staat HTML-code, in het tweede vakje UBB-code.


Add to Google

Details

Wind speed:4 bf, 12 kn, 6.2 m/s, 13.8 miles/h, 22.2 km/h
Wind direction:NNE, 020°
Visibility:Greater than 10000 m, 10 km, 32800 ft, 6.2 miles
Clouds:CAVOC
Temperature:29°C, 84°F
Gefühlte Temperatur:27°C, 81°F
Dew-point:-3°C, 27°F
Atmospheric pressure:1009 hPa, 757.2 mmHg, 29.81 inHg, 0.996 atm
Relative humidity:12.2 %
METAR:OIZH 171600Z 02012KT CAVOK 29/M03 Q1009 A2981 NOSIG

Snelkoppelingen

Actuele weersinformatie van de hele wereld. Voeg locaties toe met het plus (+) symbool. Deze snelkoppelingen kunnen worden toegevoegd aan Google.

Lid van de Technetium groep

website free tracking
StatCounter NetStat W3C Validator

18-01-2022 02:59:08
astro.technetium.be money.technetium.be phote.technetium.be tafeltennistafel.technetium.be www.ligfiets.net